Time;durP1;ratioP1;P1;durP2;ratioP2;P2;SDS_P1;SDS_P2;PMS_P1;PMS_P2;Temp;Humidity;BMP_temperature;BMP_pressure;BME280_temperature;BME280_humidity;BME280_pressure;Samples;Min_cycle;Max_cycle;Signal;HPM_P1;HPM_P2
2022/09/09 00:00:41;;;;;;;;;;;20.50;90.30;;;;;;4827176;29;20022;-96
2022/09/09 00:03:12;;;;;;;;;;;20.50;90.10;;;;;;4827379;29;20023;-97
2022/09/09 00:05:53;;;;;;;;;;;20.50;90.00;;;;;;4829595;29;19977;-96
2022/09/09 00:08:21;;;;;;;;;;;20.60;89.90;;;;;;4829674;29;19986;-96
2022/09/09 00:10:58;;;;;;;;;;;20.50;90.00;;;;;;4829747;29;19933;-96
2022/09/09 00:13:33;;;;;;;;;;;20.60;89.90;;;;;;4829981;29;19945;-96
2022/09/09 00:16:02;;;;;;;;;;;20.60;89.80;;;;;;4828948;29;19955;-96
2022/09/09 00:18:48;;;;;;;;;;;20.60;89.70;;;;;;4829055;29;19952;-96
2022/09/09 00:21:15;;;;;;;;;;;20.60;89.70;;;;;;4830178;29;19947;-96
2022/09/09 00:23:48;;;;;;;;;;;20.60;89.70;;;;;;4830057;29;19971;-96
2022/09/09 00:26:17;;;;;;;;;;;20.60;89.80;;;;;;4830097;29;19933;-96
2022/09/09 00:28:52;;;;;;;;;;;20.40;89.40;;;;;;4829909;29;19934;-96
2022/09/09 00:31:23;;;;;;;;;;;20.40;89.50;;;;;;4830319;29;20043;-96
2022/09/09 00:33:50;;;;;;;;;;;20.30;89.90;;;;;;4829481;29;19966;-96
2022/09/09 00:36:22;;;;;;;;;;;20.30;89.80;;;;;;4828205;29;19975;-96
2022/09/09 00:38:52;;;;;;;;;;;20.30;89.90;;;;;;4829025;29;19993;-96
2022/09/09 00:41:30;;;;;;;;;;;20.30;89.90;;;;;;4829153;29;19949;-96
2022/09/09 00:43:59;;;;;;;;;;;20.30;89.90;;;;;;4828334;29;19994;-96
2022/09/09 00:46:25;;;;;;;;;;;20.20;89.90;;;;;;4828761;29;19953;-96
2022/09/09 00:49:07;;;;;;;;;;;20.20;90.00;;;;;;4829543;29;20052;-96
2022/09/09 00:51:44;;;;;;;;;;;20.30;90.00;;;;;;4829355;29;19944;-96
2022/09/09 00:54:21;;;;;;;;;;;20.20;89.90;;;;;;4829255;29;19983;-96
2022/09/09 00:56:56;;;;;;;;;;;20.30;89.90;;;;;;4828752;29;19947;-96
2022/09/09 00:59:28;;;;;;;;;;;20.20;89.90;;;;;;4828993;29;20008;-96
2022/09/09 01:01:55;;;;;;;;;;;20.20;89.80;;;;;;4828468;29;19946;-96
2022/09/09 01:04:28;;;;;;;;;;;20.10;89.70;;;;;;4828756;29;19952;-96
2022/09/09 01:07:00;;;;;;;;;;;20.00;89.60;;;;;;4828332;29;19944;-96
2022/09/09 01:09:29;;;;;;;;;;;20.00;89.80;;;;;;4828619;29;20378;-97
2022/09/09 01:12:01;;;;;;;;;;;19.90;89.70;;;;;;4828717;29;19942;-96
2022/09/09 01:14:39;;;;;;;;;;;19.70;90.00;;;;;;4828012;29;19954;-97
2022/09/09 01:17:25;;;;;;;;;;;19.80;90.20;;;;;;4827441;29;19949;-96
2022/09/09 01:19:58;;;;;;;;;;;19.80;90.10;;;;;;4828502;29;19935;-96
2022/09/09 01:22:42;;;;;;;;;;;19.80;90.30;;;;;;4827931;29;19968;-97
2022/09/09 01:25:32;;;;;;;;;;;19.80;90.60;;;;;;4828358;29;19953;-96
2022/09/09 01:28:03;;;;;;;;;;;19.90;90.90;;;;;;4829128;29;20030;-96
2022/09/09 01:30:29;;;;;;;;;;;20.00;91.40;;;;;;4826337;29;19958;-96
2022/09/09 01:32:58;;;;;;;;;;;20.10;91.50;;;;;;4824678;29;19991;-96
2022/09/09 01:35:46;;;;;;;;;;;20.10;91.30;;;;;;4824602;29;20010;-96
2022/09/09 01:38:12;;;;;;;;;;;20.10;90.80;;;;;;4824574;29;19988;-96
2022/09/09 01:40:38;;;;;;;;;;;20.20;90.50;;;;;;4826067;29;19943;-96
2022/09/09 01:43:07;;;;;;;;;;;20.20;90.30;;;;;;4826144;29;20038;-96
2022/09/09 01:45:39;;;;;;;;;;;20.10;90.10;;;;;;4827407;29;19955;-96
2022/09/09 01:48:05;;;;;;;;;;;20.10;90.00;;;;;;4826664;29;19975;-96
2022/09/09 01:50:31;;;;;;;;;;;20.10;90.00;;;;;;4826916;29;20016;-96
2022/09/09 01:52:59;;;;;;;;;;;20.10;89.90;;;;;;4827446;29;19961;-96
2022/09/09 01:55:35;;;;;;;;;;;20.10;89.90;;;;;;4827958;29;19953;-96
2022/09/09 01:58:11;;;;;;;;;;;20.10;89.80;;;;;;4827089;29;20007;-96
2022/09/09 02:00:44;;;;;;;;;;;20.10;89.70;;;;;;4827143;29;19949;-97
2022/09/09 02:03:18;;;;;;;;;;;20.10;89.60;;;;;;4826147;29;19970;-96
2022/09/09 02:05:55;;;;;;;;;;;20.10;89.50;;;;;;4827347;29;19947;-96
2022/09/09 02:08:26;;;;;;;;;;;20.20;89.40;;;;;;4828308;29;19950;-96
2022/09/09 02:10:52;;;;;;;;;;;20.20;89.30;;;;;;4827070;29;19977;-96
2022/09/09 02:13:22;;;;;;;;;;;20.20;89.10;;;;;;4827307;29;20027;-96
2022/09/09 02:16:06;;;;;;;;;;;20.30;89.00;;;;;;4827103;29;19952;-96
2022/09/09 02:18:42;;;;;;;;;;;20.30;88.80;;;;;;4827247;29;19947;-96
2022/09/09 02:21:11;;;;;;;;;;;20.30;88.60;;;;;;4826917;29;19958;-96
2022/09/09 02:23:39;;;;;;;;;;;20.30;88.40;;;;;;4826557;29;19980;-96
2022/09/09 02:26:09;;;;;;;;;;;20.30;88.20;;;;;;4827401;29;19960;-96
2022/09/09 02:28:36;;;;;;;;;;;20.40;88.10;;;;;;4826481;29;19950;-96
2022/09/09 02:31:02;;;;;;;;;;;20.40;87.90;;;;;;4826605;29;19948;-96
2022/09/09 02:33:34;;;;;;;;;;;20.40;87.70;;;;;;4827533;29;19952;-96
2022/09/09 02:36:03;;;;;;;;;;;20.40;87.60;;;;;;4827747;29;19956;-96
2022/09/09 02:38:34;;;;;;;;;;;20.50;87.50;;;;;;4812299;29;19994;-96
2022/09/09 02:41:03;;;;;;;;;;;20.50;87.40;;;;;;4827816;29;19958;-96
2022/09/09 02:43:39;;;;;;;;;;;20.50;87.40;;;;;;4828736;29;19977;-96
2022/09/09 02:46:23;;;;;;;;;;;20.50;87.20;;;;;;4827269;29;19947;-96
2022/09/09 02:49:02;;;;;;;;;;;20.50;87.20;;;;;;4827148;29;19950;-96
2022/09/09 02:51:34;;;;;;;;;;;20.50;87.10;;;;;;4827145;29;19944;-96
2022/09/09 02:54:23;;;;;;;;;;;20.60;87.10;;;;;;4827080;29;19949;-96
2022/09/09 02:56:52;;;;;;;;;;;20.60;87.00;;;;;;4830462;29;19955;-96
2022/09/09 02:59:18;;;;;;;;;;;20.70;86.80;;;;;;4826301;29;20448;-96
2022/09/09 03:01:44;;;;;;;;;;;20.70;86.60;;;;;;4826406;29;19971;-96
2022/09/09 03:04:10;;;;;;;;;;;20.70;86.50;;;;;;4826151;29;19952;-96
2022/09/09 03:06:39;;;;;;;;;;;20.70;86.40;;;;;;4828076;29;19948;-96
2022/09/09 03:09:12;;;;;;;;;;;20.60;86.30;;;;;;4828341;29;19980;-96
2022/09/09 03:11:38;;;;;;;;;;;20.60;86.30;;;;;;4828305;29;19973;-96
2022/09/09 03:14:05;;;;;;;;;;;20.50;86.50;;;;;;4827623;29;19943;-96
2022/09/09 03:16:34;;;;;;;;;;;20.50;86.60;;;;;;4827786;29;20008;-96
2022/09/09 03:19:01;;;;;;;;;;;20.40;86.90;;;;;;4827124;29;19931;-96
2022/09/09 03:21:30;;;;;;;;;;;20.40;87.10;;;;;;4828435;29;19961;-96
2022/09/09 03:23:57;;;;;;;;;;;20.40;87.10;;;;;;4827809;29;20040;-96
2022/09/09 03:26:23;;;;;;;;;;;20.40;87.10;;;;;;4827909;29;19950;-96
2022/09/09 03:28:52;;;;;;;;;;;20.30;87.00;;;;;;4827655;29;20003;-97
2022/09/09 03:31:19;;;;;;;;;;;20.30;87.00;;;;;;4828007;29;19947;-96
2022/09/09 03:33:48;;;;;;;;;;;20.30;87.10;;;;;;4826411;29;19952;-96
2022/09/09 03:36:22;;;;;;;;;;;20.30;87.10;;;;;;4826833;29;19930;-96
2022/09/09 03:38:48;;;;;;;;;;;20.30;87.10;;;;;;4826029;29;19981;-96
2022/09/09 03:41:15;;;;;;;;;;;20.30;87.20;;;;;;4811709;29;19950;-96
2022/09/09 03:43:41;;;;;;;;;;;20.30;87.30;;;;;;4826677;29;19956;-97
2022/09/09 03:46:10;;;;;;;;;;;20.30;87.40;;;;;;4826279;29;19949;-96
2022/09/09 03:48:37;;;;;;;;;;;20.20;87.40;;;;;;4825363;29;19950;-96
2022/09/09 03:51:03;;;;;;;;;;;20.30;87.70;;;;;;4826789;29;19951;-96
2022/09/09 03:53:31;;;;;;;;;;;20.20;87.70;;;;;;4826297;29;19980;-96
2022/09/09 03:56:03;;;;;;;;;;;20.20;87.70;;;;;;4827420;29;19959;-96
2022/09/09 03:58:30;;;;;;;;;;;20.20;87.60;;;;;;4827849;29;20015;-96
2022/09/09 04:01:08;;;;;;;;;;;20.20;87.60;;;;;;4826436;29;19996;-96
2022/09/09 04:03:34;;;;;;;;;;;20.30;87.60;;;;;;4826434;29;19969;-96
2022/09/09 04:06:04;;;;;;;;;;;20.10;87.60;;;;;;4825994;29;19945;-96
2022/09/09 04:08:33;;;;;;;;;;;20.00;87.60;;;;;;4825808;29;19962;-96
2022/09/09 04:11:01;;;;;;;;;;;19.80;87.60;;;;;;4826601;29;19975;-96
2022/09/09 04:13:27;;;;;;;;;;;19.80;88.00;;;;;;4827009;29;20006;-96
2022/09/09 04:15:54;;;;;;;;;;;19.80;88.00;;;;;;4826783;29;19956;-96
2022/09/09 04:18:20;;;;;;;;;;;19.80;88.40;;;;;;4826671;29;19971;-96
2022/09/09 04:20:47;;;;;;;;;;;19.70;88.40;;;;;;4827119;29;19972;-96
2022/09/09 04:23:13;;;;;;;;;;;19.70;88.70;;;;;;4825863;29;19966;-96
2022/09/09 04:25:47;;;;;;;;;;;19.80;88.80;;;;;;4825791;29;19959;-96
2022/09/09 04:28:15;;;;;;;;;;;19.80;88.80;;;;;;4826634;29;19958;-96
2022/09/09 04:30:41;;;;;;;;;;;19.80;88.80;;;;;;4825946;29;19935;-96
2022/09/09 04:33:12;;;;;;;;;;;19.80;88.70;;;;;;4826150;29;19983;-96
2022/09/09 04:35:39;;;;;;;;;;;19.90;88.50;;;;;;4824112;29;19976;-96
2022/09/09 04:38:09;;;;;;;;;;;19.80;88.20;;;;;;4825693;29;19980;-96
2022/09/09 04:40:35;;;;;;;;;;;19.80;87.90;;;;;;4824328;29;19972;-96
2022/09/09 04:43:05;;;;;;;;;;;19.70;88.10;;;;;;4826232;29;19980;-96
2022/09/09 04:45:31;;;;;;;;;;;19.70;88.50;;;;;;4825790;29;19959;-96
2022/09/09 04:47:57;;;;;;;;;;;19.70;88.60;;;;;;4825317;29;19945;-96
2022/09/09 04:50:23;;;;;;;;;;;19.80;88.70;;;;;;4827883;29;19947;-96
2022/09/09 04:52:52;;;;;;;;;;;19.70;88.70;;;;;;4828467;29;19954;-96
2022/09/09 04:55:19;;;;;;;;;;;19.60;88.70;;;;;;4829250;29;19953;-96
2022/09/09 04:57:45;;;;;;;;;;;19.60;88.40;;;;;;4828592;29;19948;-96
2022/09/09 05:00:13;;;;;;;;;;;19.50;88.50;;;;;;4828331;29;19978;-97
2022/09/09 05:02:39;;;;;;;;;;;19.60;88.90;;;;;;4827879;29;19976;-96
2022/09/09 05:05:06;;;;;;;;;;;19.60;89.00;;;;;;4827779;29;19942;-96
2022/09/09 05:07:32;;;;;;;;;;;19.60;88.90;;;;;;4826534;29;19956;-96
2022/09/09 05:09:58;;;;;;;;;;;19.60;89.10;;;;;;4824167;29;20011;-96
2022/09/09 05:12:25;;;;;;;;;;;19.60;89.20;;;;;;4823648;29;19948;-96
2022/09/09 05:14:54;;;;;;;;;;;19.70;89.10;;;;;;4825029;29;19986;-96
2022/09/09 05:17:20;;;;;;;;;;;19.80;89.10;;;;;;5041635;24;21037;-96
2022/09/09 05:19:47;;;;;;;;;;;19.80;89.00;;;;;;4830900;29;19959;-96
2022/09/09 05:22:30;;;;;;;;;;;;;;;;;;;;;
2022/09/09 05:24:58;;;;;;;;;;;19.90;89.30;;;;;;5020033;24;19995;-96
2022/09/09 05:27:24;;;;;;;;;;;20.00;88.90;;;;;;4831444;29;19983;-96
2022/09/09 05:29:53;;;;;;;;;;;20.10;88.70;;;;;;4845774;29;19954;-96
2022/09/09 05:32:19;;;;;;;;;;;20.20;88.30;;;;;;4830825;29;19949;-96
2022/09/09 05:34:49;;;;;;;;;;;20.30;88.30;;;;;;4830236;29;19947;-96
2022/09/09 05:37:16;;;;;;;;;;;20.30;88.40;;;;;;4830366;29;19943;-97
2022/09/09 05:39:45;;;;;;;;;;;20.30;88.50;;;;;;4845274;29;19982;-96
2022/09/09 05:42:11;;;;;;;;;;;20.40;88.50;;;;;;4829263;29;20389;-97
2022/09/09 05:44:38;;;;;;;;;;;20.40;88.40;;;;;;4844174;29;19947;-96
2022/09/09 05:47:05;;;;;;;;;;;20.50;88.40;;;;;;4829808;29;19958;-96
2022/09/09 05:49:34;;;;;;;;;;;20.60;88.30;;;;;;4846800;29;19976;-96
2022/09/09 05:52:03;;;;;;;;;;;20.70;88.20;;;;;;4830529;29;19952;-96
2022/09/09 05:54:33;;;;;;;;;;;20.80;87.80;;;;;;4846682;29;20032;-96
2022/09/09 05:57:05;;;;;;;;;;;20.90;87.30;;;;;;4831699;29;19934;-96
2022/09/09 05:59:33;;;;;;;;;;;21.00;86.90;;;;;;4846022;29;19932;-96
2022/09/09 06:02:01;;;;;;;;;;;21.10;86.40;;;;;;4830571;29;19946;-96
2022/09/09 06:04:31;;;;;;;;;;;21.20;85.70;;;;;;4830349;29;19951;-96
2022/09/09 06:06:57;;;;;;;;;;;21.30;85.00;;;;;;4829762;29;19954;-96
2022/09/09 06:09:23;;;;;;;;;;;21.40;84.40;;;;;;4829511;29;19946;-96
2022/09/09 06:11:51;;;;;;;;;;;21.50;84.30;;;;;;4844993;29;20021;-96
2022/09/09 06:14:21;;;;;;;;;;;21.50;84.30;;;;;;4846586;29;19940;-96
2022/09/09 06:16:56;;;;;;;;;;;21.70;84.30;;;;;;4831708;29;22857;-96
2022/09/09 13:42:55;;;;;;;;;;;26.10;63.00;;;;;;6200677;22;3526711;-96
2022/09/09 13:45:22;;;;;;;;;;;26.20;63.20;;;;;;6330102;22;19939;-96
2022/09/09 13:47:52;;;;;;;;;;;26.20;62.10;;;;;;6331400;22;19930;-96
2022/09/09 13:50:26;;;;;;;;;;;26.40;61.50;;;;;;6330775;22;19940;-96
2022/09/09 13:52:53;;;;;;;;;;;26.70;62.00;;;;;;6330521;22;19938;-96
2022/09/09 13:55:21;;;;;;;;;;;27.00;61.30;;;;;;6327431;22;19980;-96
2022/09/09 13:57:54;;;;;;;;;;;27.30;60.90;;;;;;6321841;22;19970;-96
2022/09/09 14:00:20;;;;;;;;;;;28.80;57.50;;;;;;6316870;22;20368;-96
2022/09/09 14:02:46;;;;;;;;;;;30.90;52.30;;;;;;6316687;22;19956;-96
2022/09/09 14:05:12;;;;;;;;;;;32.60;47.10;;;;;;6315263;22;19940;-96
2022/09/09 14:07:39;;;;;;;;;;;34.00;44.90;;;;;;6314131;22;19943;-96
2022/09/09 14:10:06;;;;;;;;;;;35.50;42.10;;;;;;6315857;22;19932;-96
2022/09/09 14:12:31;;;;;;;;;;;35.20;42.10;;;;;;6316017;22;19957;-96
2022/09/09 14:14:59;;;;;;;;;;;35.10;43.00;;;;;;6307331;22;20040;-96
2022/09/09 14:17:27;;;;;;;;;;;33.80;45.90;;;;;;6284137;22;20295;-96
2022/09/09 14:19:52;;;;;;;;;;;34.10;44.60;;;;;;6281695;22;19994;-96
2022/09/09 14:22:18;;;;;;;;;;;33.60;45.70;;;;;;6284553;22;20315;-96
2022/09/09 14:24:43;;;;;;;;;;;33.50;45.70;;;;;;6279389;22;19935;-96
2022/09/09 14:27:09;;;;;;;;;;;33.70;46.10;;;;;;6279025;22;19942;-96
2022/09/09 14:29:34;;;;;;;;;;;34.80;44.00;;;;;;6278809;22;19944;-96
2022/09/09 14:32:00;;;;;;;;;;;35.60;42.60;;;;;;6282086;22;20010;-96
2022/09/09 14:34:26;;;;;;;;;;;36.60;40.70;;;;;;6281893;22;19937;-96
2022/09/09 14:36:52;;;;;;;;;;;37.60;38.80;;;;;;6276847;22;20037;-96
2022/09/09 14:39:17;;;;;;;;;;;38.20;37.00;;;;;;6281699;22;19941;-96
2022/09/09 14:41:43;;;;;;;;;;;38.20;37.00;;;;;;6279733;22;20435;-96
2022/09/09 14:44:08;;;;;;;;;;;38.60;36.50;;;;;;6278531;22;20103;-96
2022/09/09 14:46:34;;;;;;;;;;;38.30;37.00;;;;;;6273222;22;20395;-96
2022/09/09 14:49:00;;;;;;;;;;;38.10;37.20;;;;;;6277861;22;19942;-96
2022/09/09 14:51:28;;;;;;;;;;;38.00;37.70;;;;;;6279826;22;19944;-96
2022/09/09 14:53:57;;;;;;;;;;;37.90;37.10;;;;;;6279452;22;19934;-96
2022/09/09 14:56:24;;;;;;;;;;;37.40;37.60;;;;;;6277919;22;19932;-96
2022/09/09 14:58:50;;;;;;;;;;;36.90;38.40;;;;;;6278371;22;19983;-96
2022/09/09 15:01:18;;;;;;;;;;;37.40;37.40;;;;;;6279466;22;19936;-96
2022/09/09 15:03:48;;;;;;;;;;;36.70;37.50;;;;;;6277987;22;19973;-96
2022/09/09 15:06:14;;;;;;;;;;;34.50;41.40;;;;;;6279241;22;20033;-96
2022/09/09 15:08:43;;;;;;;;;;;34.60;41.10;;;;;;6277163;22;20245;-96
2022/09/09 15:11:10;;;;;;;;;;;33.70;42.50;;;;;;6277233;22;19939;-96
2022/09/09 15:13:39;;;;;;;;;;;34.00;42.10;;;;;;6277804;22;19937;-96
2022/09/09 15:16:08;;;;;;;;;;;33.40;42.80;;;;;;6271041;22;19986;-96
2022/09/09 15:18:35;;;;;;;;;;;33.90;41.50;;;;;;6277107;22;19931;-96
2022/09/09 15:21:03;;;;;;;;;;;34.90;39.90;;;;;;6275861;22;19931;-96
2022/09/09 15:23:28;;;;;;;;;;;36.50;37.40;;;;;;6276194;22;19969;-96
2022/09/09 15:25:55;;;;;;;;;;;37.30;35.90;;;;;;6277066;22;19934;-96
2022/09/09 15:28:21;;;;;;;;;;;38.10;34.90;;;;;;6287448;22;19946;-96
2022/09/09 15:30:50;;;;;;;;;;;38.20;34.50;;;;;;6304335;22;19935;-96
2022/09/09 15:33:16;;;;;;;;;;;37.80;35.00;;;;;;6299778;22;19964;-96
2022/09/09 15:35:42;;;;;;;;;;;38.60;34.20;;;;;;6282129;22;19935;-96
2022/09/09 16:35:08;;;;;;;;;;;33.70;40.80;;;;;;6338721;22;20015;-96
2022/09/09 16:37:34;;;;;;;;;;;33.30;41.50;;;;;;6339745;22;19933;-96
2022/09/09 16:40:00;;;;;;;;;;;33.20;41.80;;;;;;6340214;22;20240;-96
2022/09/09 16:42:25;;;;;;;;;;;33.40;41.40;;;;;;6340519;22;19939;-96
2022/09/09 16:44:51;;;;;;;;;;;32.70;42.60;;;;;;6340478;22;19944;-96
2022/09/09 16:47:17;;;;;;;;;;;32.00;44.10;;;;;;6339947;22;19939;-96
2022/09/09 16:49:43;;;;;;;;;;;31.70;45.10;;;;;;6339194;22;19933;-96
2022/09/09 16:52:09;;;;;;;;;;;30.70;47.40;;;;;;6341847;22;19952;-96
2022/09/09 16:54:34;;;;;;;;;;;29.80;50.30;;;;;;6343397;22;19930;-96
2022/09/09 16:57:00;;;;;;;;;;;29.20;51.50;;;;;;6343694;22;19931;-96
2022/09/09 16:59:26;;;;;;;;;;;28.60;53.80;;;;;;6343499;22;19936;-96
2022/09/09 17:01:51;;;;;;;;;;;28.20;55.30;;;;;;6340321;22;19942;-96
2022/09/09 17:04:23;;;;;;;;;;;27.80;56.80;;;;;;6340758;22;20008;-96
2022/09/09 17:06:50;;;;;;;;;;;27.50;58.10;;;;;;6341348;22;19937;-96
2022/09/09 17:09:16;;;;;;;;;;;27.50;57.80;;;;;;6341181;22;19937;-96
2022/09/09 17:11:42;;;;;;;;;;;27.30;58.80;;;;;;6343542;22;20348;-96
2022/09/09 17:14:10;;;;;;;;;;;26.90;61.40;;;;;;6343689;22;20016;-96
2022/09/09 17:16:36;;;;;;;;;;;26.40;63.10;;;;;;6314830;22;19976;-96
2022/09/09 17:19:03;;;;;;;;;;;26.00;64.40;;;;;;6316084;22;19960;-96
2022/09/09 17:21:29;;;;;;;;;;;25.70;65.30;;;;;;6314008;22;19940;-96
2022/09/09 17:23:55;;;;;;;;;;;25.50;66.00;;;;;;6314906;22;19928;-96
2022/09/09 17:26:23;;;;;;;;;;;25.20;67.40;;;;;;6316065;22;19966;-96
2022/09/09 17:28:48;;;;;;;;;;;25.00;68.40;;;;;;6317214;22;19975;-96
2022/09/09 17:31:16;;;;;;;;;;;24.80;69.70;;;;;;6317137;22;19942;-96
2022/09/09 17:33:43;;;;;;;;;;;24.40;70.90;;;;;;6313693;22;20015;-96
2022/09/09 17:41:24;;;;;;;;;;;23.90;75.20;;;;;;6340319;22;20001;-96
2022/09/09 17:43:50;;;;;;;;;;;23.70;76.10;;;;;;6342233;22;19937;-96
2022/09/09 17:46:17;;;;;;;;;;;23.30;76.90;;;;;;6342754;22;20296;-96
2022/09/09 17:48:44;;;;;;;;;;;23.20;78.40;;;;;;6342470;22;19938;-96
2022/09/09 17:51:14;;;;;;;;;;;22.90;79.00;;;;;;6342409;22;19936;-96
2022/09/09 17:53:42;;;;;;;;;;;22.80;79.60;;;;;;6343398;22;19981;-96
2022/09/09 17:56:08;;;;;;;;;;;22.60;80.90;;;;;;6341444;22;19946;-96
2022/09/09 17:58:35;;;;;;;;;;;22.60;81.70;;;;;;6341840;22;19946;-96
2022/09/09 18:01:09;;;;;;;;;;;22.50;81.60;;;;;;6316200;22;19944;-96
2022/09/09 18:03:35;;;;;;;;;;;22.40;81.80;;;;;;6314978;22;19941;-96
2022/09/09 18:06:04;;;;;;;;;;;22.30;81.90;;;;;;6344985;22;19961;-96
2022/09/09 18:08:31;;;;;;;;;;;22.20;82.50;;;;;;6347372;22;19935;-96
2022/09/09 18:10:57;;;;;;;;;;;22.20;82.50;;;;;;6323134;22;19934;-96
2022/09/09 18:13:22;;;;;;;;;;;22.20;82.30;;;;;;6348566;22;19994;-96
2022/09/09 18:15:48;;;;;;;;;;;22.10;82.10;;;;;;6321151;22;19941;-96
2022/09/09 18:18:14;;;;;;;;;;;22.10;81.80;;;;;;6349412;22;19933;-96
2022/09/09 18:20:40;;;;;;;;;;;22.00;81.90;;;;;;6348792;22;20028;-96
2022/09/09 18:23:06;;;;;;;;;;;21.90;82.30;;;;;;6348750;22;19945;-96
2022/09/09 18:25:36;;;;;;;;;;;21.80;82.20;;;;;;6320061;22;20263;-96
2022/09/09 18:28:02;;;;;;;;;;;21.70;82.70;;;;;;6347571;22;19996;-96
2022/09/09 18:30:29;;;;;;;;;;;21.60;83.40;;;;;;6346458;22;20310;-96
2022/09/09 18:32:54;;;;;;;;;;;21.40;84.30;;;;;;6319501;22;19960;-96
2022/09/09 18:35:20;;;;;;;;;;;21.30;84.90;;;;;;6348507;22;19938;-96
2022/09/09 18:37:46;;;;;;;;;;;21.30;85.30;;;;;;6320152;22;19967;-96
2022/09/09 18:40:12;;;;;;;;;;;21.20;85.80;;;;;;6347472;22;20036;-96
2022/09/09 18:42:37;;;;;;;;;;;21.20;85.80;;;;;;6347416;22;20362;-96
2022/09/09 18:45:03;;;;;;;;;;;21.20;86.20;;;;;;6347129;22;20001;-96
2022/09/09 18:47:29;;;;;;;;;;;21.30;85.70;;;;;;6347892;22;20403;-96
2022/09/09 18:49:55;;;;;;;;;;;21.30;85.30;;;;;;6346459;22;19937;-96
2022/09/09 18:52:20;;;;;;;;;;;21.20;85.00;;;;;;6346449;22;19960;-96
2022/09/09 18:54:47;;;;;;;;;;;21.30;84.70;;;;;;6346312;22;19940;-96
2022/09/09 18:57:12;;;;;;;;;;;21.20;84.80;;;;;;6316563;22;19976;-96
2022/09/09 18:59:38;;;;;;;;;;;21.20;84.80;;;;;;6317137;22;19937;-96
2022/09/09 19:02:04;;;;;;;;;;;21.30;84.50;;;;;;6344886;22;20347;-96
2022/09/09 19:04:31;;;;;;;;;;;21.20;84.50;;;;;;6345215;22;19938;-96
2022/09/09 19:06:57;;;;;;;;;;;21.20;84.60;;;;;;6316577;22;19941;-96
2022/09/09 19:09:24;;;;;;;;;;;21.00;84.80;;;;;;6345459;22;19931;-96
2022/09/09 19:11:50;;;;;;;;;;;20.90;85.10;;;;;;6344473;22;19986;-96
2022/09/09 19:14:16;;;;;;;;;;;20.90;85.50;;;;;;6343694;22;19978;-96
2022/09/09 19:16:44;;;;;;;;;;;20.90;85.40;;;;;;6342233;22;20014;-96
2022/09/09 19:19:20;;;;;;;;;;;20.90;85.30;;;;;;6341319;22;19938;-96
2022/09/09 19:21:46;;;;;;;;;;;21.00;84.90;;;;;;6341718;22;19975;-96
2022/09/09 19:24:13;;;;;;;;;;;21.10;84.40;;;;;;6341029;22;19937;-96
2022/09/09 19:26:42;;;;;;;;;;;21.20;83.80;;;;;;6341195;22;20339;-96
2022/09/09 19:29:13;;;;;;;;;;;21.20;83.70;;;;;;6342717;22;20023;-96
2022/09/09 19:31:39;;;;;;;;;;;21.30;83.10;;;;;;6315403;22;19936;-96
2022/09/09 19:34:04;;;;;;;;;;;21.20;82.60;;;;;;6343338;22;19994;-96
2022/09/09 19:36:30;;;;;;;;;;;21.20;82.40;;;;;;6342500;22;19937;-96
2022/09/09 19:38:56;;;;;;;;;;;21.20;82.30;;;;;;6342555;22;19973;-96
2022/09/09 19:41:23;;;;;;;;;;;21.20;82.20;;;;;;6342679;22;19967;-96
2022/09/09 19:43:49;;;;;;;;;;;21.20;82.30;;;;;;6315780;22;19941;-96
2022/09/09 19:46:17;;;;;;;;;;;21.20;82.30;;;;;;6315664;22;20262;-96
2022/09/09 19:48:43;;;;;;;;;;;21.20;82.30;;;;;;6343689;22;20410;-96
2022/09/09 19:51:10;;;;;;;;;;;21.20;82.30;;;;;;6316475;22;19989;-96
2022/09/09 19:53:37;;;;;;;;;;;21.20;82.50;;;;;;6344908;22;20013;-96
2022/09/09 19:56:03;;;;;;;;;;;21.20;82.10;;;;;;6344791;22;20368;-96
2022/09/09 19:58:32;;;;;;;;;;;21.30;81.90;;;;;;6344291;22;19977;-96
2022/09/09 20:01:31;;;;;;;;;;;21.30;81.60;;;;;;6344399;22;20011;-96
2022/09/09 20:03:58;;;;;;;;;;;21.40;81.40;;;;;;6259663;22;19949;-96
2022/09/09 20:06:25;;;;;;;;;;;21.30;81.20;;;;;;6345297;22;20362;-96
2022/09/09 20:08:51;;;;;;;;;;;21.30;81.10;;;;;;6317083;22;19974;-96
2022/09/09 20:11:17;;;;;;;;;;;21.30;80.90;;;;;;6345599;22;19931;-96
2022/09/09 20:13:43;;;;;;;;;;;21.30;80.60;;;;;;6343692;22;20269;-96
2022/09/09 20:16:10;;;;;;;;;;;21.40;80.50;;;;;;6343968;22;20343;-96
2022/09/09 20:18:37;;;;;;;;;;;21.40;80.40;;;;;;6343606;22;19940;-96
2022/09/09 20:21:08;;;;;;;;;;;21.40;80.20;;;;;;6316805;22;19933;-96
2022/09/09 20:23:34;;;;;;;;;;;21.50;80.00;;;;;;6343241;22;20020;-96
2022/09/09 20:26:01;;;;;;;;;;;21.50;79.80;;;;;;6344165;22;19934;-96
2022/09/09 20:28:28;;;;;;;;;;;21.50;79.70;;;;;;6343165;22;19937;-96
2022/09/09 20:30:53;;;;;;;;;;;21.50;79.60;;;;;;6342966;22;19931;-96
2022/09/09 20:33:20;;;;;;;;;;;21.50;79.50;;;;;;6314702;22;19960;-96
2022/09/09 20:35:46;;;;;;;;;;;21.40;79.70;;;;;;6314396;22;20009;-96
2022/09/09 20:38:12;;;;;;;;;;;21.40;79.70;;;;;;6341894;22;19936;-96
2022/09/09 20:40:38;;;;;;;;;;;21.40;79.80;;;;;;6341319;22;20038;-96
2022/09/09 20:43:04;;;;;;;;;;;21.30;80.40;;;;;;6341466;22;19946;-96
2022/09/09 20:45:31;;;;;;;;;;;21.30;80.60;;;;;;6341417;22;19938;-96
2022/09/09 20:47:56;;;;;;;;;;;21.30;80.60;;;;;;6342023;22;19929;-96
2022/09/09 20:50:22;;;;;;;;;;;21.30;80.70;;;;;;6313276;22;19938;-96
2022/09/09 20:52:48;;;;;;;;;;;21.30;80.80;;;;;;6342325;22;19964;-96
2022/09/09 20:55:14;;;;;;;;;;;21.20;80.80;;;;;;6314622;22;19951;-96
2022/09/09 20:57:39;;;;;;;;;;;21.10;80.80;;;;;;6343125;22;20383;-96
2022/09/09 21:00:06;;;;;;;;;;;21.10;81.00;;;;;;6341738;22;20339;-96
2022/09/09 21:02:32;;;;;;;;;;;20.90;81.30;;;;;;6341857;22;19936;-96
2022/09/09 21:05:00;;;;;;;;;;;20.80;81.60;;;;;;6341043;22;19941;-96
2022/09/09 21:07:26;;;;;;;;;;;20.80;82.00;;;;;;6341840;22;19963;-96
2022/09/09 21:09:51;;;;;;;;;;;20.70;82.40;;;;;;6313382;22;19938;-96
2022/09/09 21:12:17;;;;;;;;;;;20.60;82.70;;;;;;6313960;22;19959;-95
2022/09/09 21:14:42;;;;;;;;;;;20.50;83.20;;;;;;6312976;22;20309;-96
2022/09/09 21:17:08;;;;;;;;;;;20.40;83.40;;;;;;6341141;22;19930;-96
2022/09/09 21:19:34;;;;;;;;;;;20.40;83.80;;;;;;6341820;22;19934;-96
2022/09/09 21:22:00;;;;;;;;;;;20.30;83.90;;;;;;6341279;22;19993;-96
2022/09/09 21:24:25;;;;;;;;;;;20.30;83.90;;;;;;6341763;22;19937;-96
2022/09/09 21:26:53;;;;;;;;;;;20.30;83.80;;;;;;6340807;22;19934;-96
2022/09/09 21:29:18;;;;;;;;;;;20.30;83.70;;;;;;6341676;22;20397;-96
2022/09/09 21:31:44;;;;;;;;;;;20.30;83.50;;;;;;6340961;22;20007;-96
2022/09/09 21:34:12;;;;;;;;;;;20.30;83.40;;;;;;6313796;22;19967;-96
2022/09/09 21:36:37;;;;;;;;;;;20.30;83.60;;;;;;6342942;22;20526;-96
2022/09/09 21:39:03;;;;;;;;;;;20.20;83.70;;;;;;6343641;22;19979;-96
2022/09/09 21:41:29;;;;;;;;;;;20.10;83.80;;;;;;6342754;22;19970;-96
2022/09/09 21:43:55;;;;;;;;;;;20.00;83.90;;;;;;6343905;22;19945;-96
2022/09/09 21:46:21;;;;;;;;;;;20.00;84.10;;;;;;6342632;22;19942;-96
2022/09/09 21:48:47;;;;;;;;;;;19.90;84.10;;;;;;6342996;22;20092;-96
2022/09/09 21:51:14;;;;;;;;;;;19.90;83.90;;;;;;6314703;22;20345;-96
2022/09/09 21:53:40;;;;;;;;;;;19.90;83.60;;;;;;6342222;22;20272;-96
2022/09/09 21:56:09;;;;;;;;;;;20.00;83.30;;;;;;6341983;22;19938;-96
2022/09/09 21:58:35;;;;;;;;;;;20.10;83.30;;;;;;6314374;22;19935;-96
2022/09/09 22:01:01;;;;;;;;;;;20.10;83.10;;;;;;6342528;22;19968;-96
2022/09/09 22:03:26;;;;;;;;;;;20.00;83.00;;;;;;6342178;22;19940;-96
2022/09/09 22:05:52;;;;;;;;;;;20.10;82.90;;;;;;6314236;22;20402;-96
2022/09/09 22:08:18;;;;;;;;;;;20.10;83.30;;;;;;6314234;22;20266;-96
2022/09/09 22:10:45;;;;;;;;;;;19.90;83.10;;;;;;6341992;22;20351;-96
2022/09/09 22:13:11;;;;;;;;;;;19.80;83.20;;;;;;6314334;22;19968;-96
2022/09/09 22:15:39;;;;;;;;;;;19.80;83.40;;;;;;6314175;22;20035;-96
2022/09/09 22:18:05;;;;;;;;;;;19.80;83.10;;;;;;6342274;22;20358;-96
2022/09/09 22:20:34;;;;;;;;;;;19.90;82.80;;;;;;6314131;22;19990;-96
2022/09/09 22:23:00;;;;;;;;;;;19.90;82.60;;;;;;6342355;22;19936;-96
2022/09/09 22:25:26;;;;;;;;;;;19.90;82.40;;;;;;6341975;22;20037;-96
2022/09/09 22:27:51;;;;;;;;;;;19.80;82.60;;;;;;6341684;22;20357;-96
2022/09/09 22:30:18;;;;;;;;;;;19.80;82.10;;;;;;6341627;22;20022;-96
2022/09/09 22:32:44;;;;;;;;;;;19.70;82.10;;;;;;6341733;22;19962;-96
2022/09/09 22:35:09;;;;;;;;;;;19.60;81.80;;;;;;6341789;22;19936;-96
2022/09/09 22:37:35;;;;;;;;;;;19.60;81.50;;;;;;6314063;22;20344;-96
2022/09/09 22:40:01;;;;;;;;;;;19.60;81.00;;;;;;6313667;22;19975;-96
2022/09/09 22:42:26;;;;;;;;;;;19.70;81.70;;;;;;6342299;22;20315;-96
2022/09/09 22:44:52;;;;;;;;;;;19.80;81.60;;;;;;6313840;22;19990;-95
2022/09/09 22:47:17;;;;;;;;;;;19.70;81.50;;;;;;6341807;22;20014;-96
2022/09/09 22:49:43;;;;;;;;;;;19.80;81.50;;;;;;6341881;22;19936;-95